Time;durP1;ratioP1;P1;durP2;ratioP2;P2;SDS_P1;SDS_P2;PMS_P1;PMS_P2;Temp;Humidity;BMP_temperature;BMP_pressure;BME280_temperature;BME280_humidity;BME280_pressure;Samples;Min_cycle;Max_cycle;Signal;HPM_P1;HPM_P2
2022/01/09 00:01:44;;;;;;;68.50;31.17;;;6.90;50.30;;;;;;4827568;29;20034;-83
2022/01/09 00:04:10;;;;;;;65.90;32.92;;;7.00;50.00;;;;;;4828324;29;20082;-83
2022/01/09 00:07:12;;;;;;;66.80;32.15;;;7.10;49.90;;;;;;4828102;29;20022;-82
2022/01/09 00:09:41;;;;;;;80.10;35.97;;;7.00;49.80;;;;;;4824817;29;20035;-83
2022/01/09 00:12:07;;;;;;;74.03;32.78;;;7.00;49.70;;;;;;4809777;29;20494;-82
2022/01/09 00:14:33;;;;;;;72.40;34.30;;;6.70;49.90;;;;;;4810034;29;20372;-83
2022/01/09 00:16:59;;;;;;;70.45;35.10;;;6.70;50.20;;;;;;4809739;29;20038;-83
2022/01/09 00:19:26;;;;;;;77.85;36.03;;;6.70;50.10;;;;;;4810092;29;20172;-83
2022/01/09 00:21:52;;;;;;;70.93;35.03;;;6.70;50.20;;;;;;4810176;29;20036;-84
2022/01/09 00:24:20;;;;;;;75.50;35.92;;;6.60;50.20;;;;;;4810077;29;20542;-83
2022/01/09 00:26:45;;;;;;;73.85;36.47;;;6.40;50.50;;;;;;4825126;29;20038;-83
2022/01/09 00:29:14;;;;;;;72.63;35.95;;;6.30;50.80;;;;;;4806975;29;20031;-83
2022/01/09 00:31:40;;;;;;;80.25;37.90;;;6.10;51.10;;;;;;4791839;29;20049;-84
2022/01/09 00:37:27;;;;;;;80.93;38.97;;;5.40;52.20;;;;;;4807162;29;20045;-85
2022/01/09 00:39:59;;;;;;;80.55;39.53;;;5.20;53.10;;;;;;4806431;29;20047;-84
2022/01/09 00:42:25;;;;;;;87.63;40.03;;;5.40;52.40;;;;;;4792723;29;20424;-85
2022/01/09 00:48:21;;;;;;;74.35;33.75;;;5.10;52.10;;;;;;4880438;29;20534;-85
2022/01/09 00:54:50;;;;;;;71.05;31.35;;;5.20;51.80;;;;;;4880371;29;20043;-85
2022/01/09 00:57:16;;;;;;;62.92;30.08;;;5.00;52.00;;;;;;4864635;29;20124;-85
2022/01/09 01:06:34;;;;;;;68.72;32.45;;;5.40;50.90;;;;;;4919479;29;20067;-86
2022/01/09 01:13:13;;;;;;;79.32;34.47;;;5.40;50.90;;;;;;4919316;29;20035;-85
2022/01/09 01:15:39;;;;;;;76.32;35.72;;;5.40;50.80;;;;;;4919336;29;20439;-85
2022/01/09 01:22:21;;;;;;;74.57;32.70;;;5.30;50.40;;;;;;4918864;29;20388;-86
2022/01/09 01:24:47;;;;;;;70.63;33.53;;;5.30;50.50;;;;;;4902712;29;20583;-88
2022/01/09 01:30:39;;;;;;;65.03;30.83;;;5.00;50.80;;;;;;4918973;29;20097;-88
2022/01/09 01:33:05;;;;;;;65.68;31.75;;;4.80;51.20;;;;;;4901615;29;20060;-87
2022/01/09 01:35:57;;;;;;;72.65;33.20;;;4.80;50.90;;;;;;4902000;29;20033;-87
2022/01/09 01:38:29;;;;;;;68.97;34.10;;;4.70;50.70;;;;;;4902131;29;20115;-89
2022/01/09 01:40:55;;;;;;;70.40;34.28;;;4.80;50.80;;;;;;4901770;29;20032;-90
2022/01/09 01:43:21;;;;;;;66.13;32.05;;;4.80;50.70;;;;;;4918837;29;20023;-90
2022/01/09 01:45:56;;;;;;;66.75;31.83;;;4.80;50.90;;;;;;4901983;29;20500;-88
2022/01/09 01:48:24;;;;;;;83.20;38.72;;;4.80;50.70;;;;;;4901685;29;20039;-91
2022/01/09 01:51:30;;;;;;;112.43;49.53;;;4.90;51.10;;;;;;4902263;29;20032;-92
2022/01/09 02:00:28;;;;;;;82.03;38.58;;;5.00;51.00;;;;;;5801473;23;20251;-92
2022/01/09 02:02:54;;;;;;;81.72;37.97;;;5.20;50.20;;;;;;4883892;29;20035;-93
2022/01/09 02:12:06;;;;;;;87.32;36.95;;;5.00;51.50;;;;;;4900383;29;20040;-90
2022/01/09 02:21:26;;;;;;;69.78;32.33;;;4.60;50.90;;;;;;5480470;23;20066;-90
2022/01/09 02:29:31;;;;;;;62.40;29.27;;;5.00;51.00;;;;;;5164964;23;20059;-91
2022/01/09 02:39:03;;;;;;;63.67;29.58;;;4.70;50.90;;;;;;4940979;29;20032;-92
2022/01/09 02:41:34;;;;;;;60.50;29.77;;;4.30;51.10;;;;;;4923541;29;20055;-91
2022/01/09 02:47:08;;;;;;;57.80;28.30;;;4.50;51.60;;;;;;5342960;23;20050;-92
2022/01/09 02:49:33;;;;;;;60.13;28.35;;;4.70;51.20;;;;;;4924960;29;20031;-92
2022/01/09 03:07:55;;;;;;;56.83;27.70;;;4.50;51.60;;;;;;5123278;24;20055;-92
2022/01/09 03:10:49;;;;;;;60.88;27.25;;;4.60;50.50;;;;;;4868202;29;20033;-93
2022/01/09 04:30:39;;;;;;;52.85;25.73;;;3.10;50.00;;;;;;4061288;23;20316;-93
2022/01/09 04:34:10;;;;;;;;;;;;;;;;;;;;;
2022/01/09 04:36:39;;;;;;;55.45;24.70;;;3.10;50.00;;;;;;4906269;23;20472;-90
2022/01/09 04:39:04;;;;;;;57.63;25.85;;;2.80;50.20;;;;;;4917996;29;20044;-90
2022/01/09 04:44:28;;;;;;;53.00;25.65;;;2.80;51.10;;;;;;5097478;24;20052;-90
2022/01/09 04:50:28;;;;;;;50.13;24.00;;;2.50;50.50;;;;;;4900419;29;20064;-90
2022/01/09 04:53:04;;;;;;;47.13;23.20;;;2.10;51.20;;;;;;4881439;29;20025;-90
2022/01/09 04:55:32;;;;;;;55.28;24.85;;;2.20;51.50;;;;;;4880727;29;20033;-89
2022/01/09 05:01:42;;;;;;;48.03;23.95;;;2.10;52.70;;;;;;4900976;29;20067;-90
2022/01/09 05:12:17;;;;;;;64.03;26.30;;;2.00;54.00;;;;;;5422981;24;20132;-91
2022/01/09 05:14:48;;;;;;;58.00;24.70;;;2.10;53.30;;;;;;4921406;29;20039;-90
2022/01/09 05:30:52;;;;;;;53.40;23.67;;;3.00;50.10;;;;;;4843054;29;20042;-91
2022/01/09 05:39:18;;;;;;;52.10;24.80;;;3.10;50.10;;;;;;4917521;29;20056;-90
2022/01/09 05:41:57;;;;;;;;;;;;;;;;;;;;;
2022/01/09 05:45:16;;;;;;;57.53;24.73;;;3.20;49.40;;;;;;4918785;29;20024;-90
2022/01/09 05:48:18;;;;;;;53.75;25.83;;;3.10;49.50;;;;;;4916947;29;20067;-90
2022/01/09 05:51:02;;;;;;;59.83;28.23;;;3.10;49.90;;;;;;4917057;29;20051;-89
2022/01/09 05:53:33;;;;;;;57.28;24.58;;;3.00;49.90;;;;;;4918674;29;20016;-89
2022/01/09 05:56:23;;;;;;;55.47;25.83;;;2.80;49.30;;;;;;4918311;29;20028;-90
2022/01/09 05:59:17;;;;;;;;;;;;;;;;;;;;;
2022/01/09 06:01:43;;;;;;;58.03;26.92;;;2.30;49.90;;;;;;4918620;29;20016;-89
2022/01/09 06:04:34;;;;;;;59.55;25.25;;;2.20;50.30;;;;;;4928399;29;20122;-90
2022/01/09 06:10:24;;;;;;;54.70;24.83;;;2.30;50.40;;;;;;4938145;29;20035;-89
2022/01/09 06:12:49;;;;;;;58.35;27.05;;;2.20;50.10;;;;;;4936517;29;20027;-90
2022/01/09 06:18:47;;;;;;;60.30;28.50;;;2.20;49.90;;;;;;4957376;29;20158;-90
2022/01/09 06:21:21;;;;;;;66.78;29.38;;;2.30;50.20;;;;;;4934268;29;20799;-90
2022/01/09 06:31:11;;;;;;;73.70;32.20;;;2.30;53.20;;;;;;4936380;29;20107;-88
2022/01/09 06:33:36;;;;;;;49.22;24.40;;;2.60;51.60;;;;;;4826031;29;20042;-89
2022/01/09 06:42:38;;;;;;;63.75;28.15;;;1.50;50.40;;;;;;4954394;29;20046;-88
2022/01/09 06:59:26;;;;;;;93.03;33.65;;;1.90;50.70;;;;;;4593010;29;10001636;-87
2022/01/09 07:02:30;;;;;;;;;;;;;;;;;;;;;
2022/01/09 07:04:56;;;;;;;81.28;31.80;;;2.00;50.60;;;;;;4920695;29;20028;-89
2022/01/09 07:07:22;;;;;;;66.43;29.90;;;2.20;51.20;;;;;;4923477;29;20434;-89
2022/01/09 07:09:48;;;;;;;68.30;29.20;;;2.30;50.60;;;;;;4911418;29;20460;-87
2022/01/09 07:12:16;;;;;;;66.43;28.65;;;2.20;51.10;;;;;;4904337;29;20168;-88
2022/01/09 07:14:47;;;;;;;65.47;29.58;;;2.30;51.60;;;;;;4888868;29;20380;-87
2022/01/09 07:17:13;;;;;;;73.72;32.78;;;2.50;51.20;;;;;;4904807;29;20031;-88
2022/01/09 07:19:39;;;;;;;83.80;36.95;;;2.70;51.20;;;;;;4904505;29;20032;-88
2022/01/09 07:22:51;;;;;;;82.40;36.97;;;2.80;51.10;;;;;;4904643;29;20101;-88
2022/01/09 07:25:33;;;;;;;65.85;30.95;;;2.80;51.00;;;;;;4903846;29;20115;-90
2022/01/09 07:28:03;;;;;;;60.08;27.90;;;2.50;51.20;;;;;;4904393;29;20035;-91
2022/01/09 07:30:44;;;;;;;69.32;31.20;;;2.00;52.40;;;;;;4904880;29;20468;-87
2022/01/09 07:33:23;;;;;;;79.07;32.85;;;1.60;54.10;;;;;;4904326;29;20028;-91
2022/01/09 07:38:52;;;;;;;72.80;32.40;;;1.60;56.40;;;;;;4825812;29;20107;-87
2022/01/09 07:41:50;;;;;;;67.78;31.75;;;1.80;56.70;;;;;;4825873;29;20411;-88
2022/01/09 08:05:26;;;;;;;70.25;32.42;;;3.70;54.30;;;;;;4954056;23;20063;-91
2022/01/09 08:07:51;;;;;;;66.50;32.10;;;3.60;55.10;;;;;;4902893;29;20075;-87
2022/01/09 08:10:25;;;;;;;72.32;32.67;;;3.60;55.40;;;;;;4903340;29;20283;-88
2022/01/09 08:12:51;;;;;;;71.70;33.80;;;3.40;55.70;;;;;;4872328;29;20025;-87
2022/01/09 08:45:12;;;;;;;75.65;34.22;;;4.30;55.50;;;;;;5442587;23;20054;-90
2022/01/09 08:47:49;;;;;;;104.65;35.22;;;4.50;55.40;;;;;;4937937;29;20035;-88
2022/01/09 08:50:19;;;;;;;120.60;46.38;;;4.50;55.90;;;;;;4921790;29;20026;-89
2022/01/09 08:53:02;;;;;;;80.28;37.03;;;5.00;55.20;;;;;;4922382;29;20027;-90
2022/01/09 08:55:43;;;;;;;68.57;32.30;;;5.70;53.80;;;;;;4938137;29;20039;-90
2022/01/09 08:58:11;;;;;;;72.78;34.80;;;6.70;51.80;;;;;;4922290;29;20024;-92
2022/01/09 09:04:33;;;;;;;72.32;37.75;;;8.60;49.10;;;;;;4919849;29;20062;-92
2022/01/09 09:07:08;;;;;;;73.55;38.22;;;10.00;46.60;;;;;;4903063;29;20102;-92
2022/01/09 09:09:37;;;;;;;80.68;39.13;;;11.30;45.10;;;;;;4902680;29;20032;-90
2022/01/09 09:12:38;;;;;;;110.88;48.45;;;12.80;42.40;;;;;;4906217;29;20051;-91
2022/01/09 09:15:07;;;;;;;89.82;42.88;;;13.60;41.70;;;;;;4903316;29;20043;-89
2022/01/09 09:17:36;;;;;;;69.93;35.20;;;14.20;40.70;;;;;;4902438;29;20038;-92
2022/01/09 09:20:17;;;;;;;74.00;37.90;;;13.60;40.40;;;;;;4902484;29;20056;-91
2022/01/09 09:22:43;;;;;;;93.55;43.45;;;11.60;42.80;;;;;;4860578;29;20034;-90
2022/01/09 09:25:10;;;;;;;67.20;33.70;;;11.20;44.30;;;;;;4845223;29;20546;-89
2022/01/09 09:27:48;;;;;;;63.70;34.03;;;10.80;44.20;;;;;;4861301;29;20037;-88
2022/01/09 09:30:29;;;;;;;59.58;34.53;;;11.10;44.70;;;;;;4845811;29;20137;-89
2022/01/09 09:32:55;;;;;;;49.35;27.30;;;12.40;43.60;;;;;;4879017;29;20028;-89
2022/01/09 09:35:22;;;;;;;47.90;26.35;;;13.50;41.80;;;;;;4886540;29;20081;-85
2022/01/09 09:37:49;;;;;;;50.03;29.38;;;13.60;40.80;;;;;;4864564;29;20422;-86
2022/01/09 09:40:15;;;;;;;56.03;29.77;;;13.30;41.30;;;;;;4879098;29;20171;-88
2022/01/09 09:42:41;;;;;;;62.25;31.45;;;12.90;41.40;;;;;;4880205;23;20060;-87
2022/01/09 09:45:10;;;;;;;55.53;28.73;;;12.50;42.10;;;;;;4901344;29;20108;-88
2022/01/09 09:47:37;;;;;;;75.40;35.38;;;11.80;42.50;;;;;;4901336;29;20079;-85
2022/01/09 09:50:05;;;;;;;62.33;33.42;;;10.70;44.20;;;;;;4901700;29;20032;-83
2022/01/09 09:52:31;;;;;;;59.97;31.73;;;10.40;44.70;;;;;;4901483;29;20024;-85
2022/01/09 09:54:58;;;;;;;73.72;36.08;;;9.80;45.40;;;;;;4918456;29;20088;-85
2022/01/09 09:57:24;;;;;;;83.10;41.60;;;9.70;46.10;;;;;;4901972;29;20086;-84
2022/01/09 10:00:08;;;;;;;70.70;37.58;;;10.20;45.90;;;;;;4902478;29;20055;-84
2022/01/09 10:02:49;;;;;;;60.58;32.70;;;10.80;45.30;;;;;;4904497;29;20057;-84
2022/01/09 10:08:19;;;;;;;59.42;31.98;;;11.00;44.70;;;;;;4917971;29;20408;-82
2022/01/09 10:10:47;;;;;;;70.85;35.72;;;11.50;44.60;;;;;;4901877;29;20480;-84
2022/01/09 10:16:35;;;;;;;54.75;29.63;;;12.50;43.40;;;;;;4917600;29;20060;-85
2022/01/09 10:19:01;;;;;;;55.25;30.73;;;12.80;42.80;;;;;;4918082;29;20032;-85
2022/01/09 10:21:34;;;;;;;55.08;30.55;;;13.00;42.50;;;;;;4917517;29;20028;-85
2022/01/09 10:24:08;;;;;;;54.05;30.02;;;12.90;43.10;;;;;;4900133;29;20036;-86
2022/01/09 10:27:13;;;;;;;55.95;32.40;;;13.00;42.70;;;;;;4896849;29;20143;-82
2022/01/09 10:29:38;;;;;;;56.75;30.30;;;12.60;43.00;;;;;;4884854;29;20032;-86
2022/01/09 10:32:16;;;;;;;50.47;28.67;;;12.20;43.70;;;;;;4899117;29;20016;-83
2022/01/09 10:34:42;;;;;;;47.92;27.23;;;12.30;43.80;;;;;;4883047;29;20049;-90
2022/01/09 10:37:19;;;;;;;47.53;26.88;;;11.20;44.40;;;;;;4884130;29;20033;-82
2022/01/09 10:39:48;;;;;;;51.97;28.50;;;9.50;47.30;;;;;;4900010;29;20032;-87
2022/01/09 10:42:14;;;;;;;52.15;29.33;;;9.70;48.30;;;;;;4903569;29;20068;-86
2022/01/09 10:44:43;;;;;;;51.65;28.90;;;9.60;47.50;;;;;;4905108;29;20119;-86
2022/01/09 10:47:12;;;;;;;55.03;30.42;;;9.70;47.50;;;;;;4900073;29;20124;-86
2022/01/09 10:49:42;;;;;;;51.33;30.23;;;9.90;47.70;;;;;;4901802;29;20035;-83
2022/01/09 10:52:26;;;;;;;50.30;28.67;;;9.90;47.10;;;;;;4901445;29;20032;-85
2022/01/09 10:54:55;;;;;;;48.13;26.58;;;10.10;47.60;;;;;;4919308;29;20056;-81
2022/01/09 10:57:26;;;;;;;50.47;28.02;;;9.90;46.90;;;;;;4908505;29;20060;-88
2022/01/09 10:59:53;;;;;;;59.15;41.03;;;9.70;48.30;;;;;;4912920;29;20021;-81
2022/01/09 11:02:19;;;;;;;47.25;28.00;;;10.30;47.80;;;;;;4899011;29;20036;-85
2022/01/09 11:04:47;;;;;;;51.50;26.98;;;10.30;46.90;;;;;;4898363;29;20039;-80
2022/01/09 11:07:14;;;;;;;48.22;27.70;;;10.80;46.30;;;;;;4901608;29;20095;-81
2022/01/09 11:09:44;;;;;;;50.38;28.10;;;10.40;46.70;;;;;;4918295;29;20780;-80
2022/01/09 11:12:10;;;;;;;48.70;28.80;;;9.40;48.40;;;;;;4901414;29;20035;-84
2022/01/09 11:14:40;;;;;;;53.25;29.20;;;9.40;48.80;;;;;;4901831;29;20040;-83
2022/01/09 11:17:08;;;;;;;60.70;30.90;;;9.70;48.10;;;;;;4919468;29;20376;-82
2022/01/09 11:19:34;;;;;;;71.13;33.60;;;9.80;47.70;;;;;;4918475;29;20078;-82
2022/01/09 11:22:03;;;;;;;60.75;31.30;;;9.90;48.20;;;;;;4901939;29;20475;-86
2022/01/09 11:24:47;;;;;;;50.13;27.38;;;9.40;48.10;;;;;;4899457;29;20040;-81
2022/01/09 11:27:27;;;;;;;52.25;28.85;;;8.60;48.80;;;;;;4899770;29;20043;-80
2022/01/09 11:29:53;;;;;;;53.83;30.58;;;7.90;50.70;;;;;;4881432;29;20044;-78
2022/01/09 11:32:30;;;;;;;54.20;30.17;;;7.50;51.50;;;;;;4899544;29;20032;-81
2022/01/09 11:35:11;;;;;;;53.35;29.55;;;7.90;51.60;;;;;;4917645;29;20039;-80
2022/01/09 11:37:44;;;;;;;53.75;29.38;;;7.90;51.10;;;;;;4918685;29;20028;-89
2022/01/09 11:40:31;;;;;;;53.25;28.48;;;7.70;52.00;;;;;;4917735;29;20032;-81
2022/01/09 11:43:05;;;;;;;56.55;29.38;;;7.30;52.30;;;;;;4917810;29;20058;-81
2022/01/09 11:45:40;;;;;;;53.55;29.27;;;7.20;52.80;;;;;;4909678;29;20084;-80
2022/01/09 11:48:06;;;;;;;53.60;29.85;;;7.50;52.60;;;;;;4910255;29;20055;-79
2022/01/09 11:50:33;;;;;;;55.92;29.30;;;7.90;51.80;;;;;;4902842;29;20032;-80
2022/01/09 11:53:00;;;;;;;50.92;28.05;;;7.50;52.30;;;;;;4915412;29;20035;-80
2022/01/09 11:55:44;;;;;;;56.58;29.38;;;7.20;52.30;;;;;;4905335;29;20102;-79
2022/01/09 11:58:11;;;;;;;53.60;27.80;;;7.40;52.30;;;;;;4882033;29;20103;-79
2022/01/09 12:00:46;;;;;;;54.20;29.60;;;7.50;51.70;;;;;;4905365;29;20604;-80
2022/01/09 12:03:27;;;;;;;51.90;29.20;;;7.90;51.70;;;;;;4901486;29;20035;-77
2022/01/09 12:06:08;;;;;;;54.40;29.95;;;8.60;51.10;;;;;;4897955;29;20079;-86
2022/01/09 12:09:09;;;;;;;51.55;28.25;;;8.00;51.40;;;;;;4902736;29;20021;-78
2022/01/09 12:12:02;;;;;;;65.22;35.65;;;8.20;51.10;;;;;;4806367;29;20058;-79
2022/01/09 12:14:53;;;;;;;55.33;30.92;;;7.70;51.30;;;;;;4806196;29;20508;-80
2022/01/09 12:17:22;;;;;;;56.22;30.08;;;7.70;52.30;;;;;;4808605;29;20459;-79
2022/01/09 12:20:09;;;;;;;59.25;32.10;;;7.90;51.60;;;;;;4807388;29;20120;-87
2022/01/09 12:22:42;;;;;;;62.38;33.50;;;7.70;51.90;;;;;;4806774;29;20065;-83
2022/01/09 12:25:21;;;;;;;56.40;31.65;;;7.80;52.20;;;;;;4828107;29;20079;-80
2022/01/09 12:28:08;;;;;;;56.95;32.65;;;8.00;51.80;;;;;;4824402;29;20083;-83
2022/01/09 12:30:38;;;;;;;52.92;30.05;;;7.80;51.50;;;;;;4821262;29;20034;-78
2022/01/09 12:33:25;;;;;;;52.72;28.73;;;7.70;52.00;;;;;;4830606;29;20042;-80
2022/01/09 12:35:58;;;;;;;55.35;31.48;;;7.90;51.10;;;;;;4815772;29;20045;-81
2022/01/09 12:38:26;;;;;;;59.75;31.88;;;7.50;51.60;;;;;;4811000;29;20045;-81
2022/01/09 12:40:56;;;;;;;62.25;35.72;;;7.80;51.90;;;;;;4823726;29;20030;-89
2022/01/09 12:43:23;;;;;;;54.80;29.58;;;7.80;51.70;;;;;;4823420;29;20053;-83
2022/01/09 12:45:49;;;;;;;61.78;34.53;;;8.10;51.20;;;;;;4885572;29;20055;-78
2022/01/09 12:48:20;;;;;;;56.00;33.00;;;8.10;51.20;;;;;;4897820;29;20047;-82
2022/01/09 12:50:48;;;;;;;56.63;31.65;;;7.90;51.10;;;;;;4896076;29;20032;-79
2022/01/09 12:53:29;;;;;;;55.42;29.17;;;8.10;51.10;;;;;;4912588;29;20032;-84
2022/01/09 12:56:10;;;;;;;57.45;32.92;;;7.90;51.10;;;;;;4896642;29;20373;-80
2022/01/09 12:58:40;;;;;;;57.92;31.55;;;7.90;51.80;;;;;;4896740;29;20118;-85
2022/01/09 13:01:31;;;;;;;58.45;29.70;;;8.00;51.50;;;;;;4902456;29;20027;-82
2022/01/09 13:03:59;;;;;;;53.95;31.05;;;8.30;50.90;;;;;;4916258;29;20040;-83
2022/01/09 13:06:31;;;;;;;57.70;29.23;;;8.50;50.50;;;;;;4880598;29;20040;-82
2022/01/09 13:09:00;;;;;;;79.90;35.05;;;8.40;50.10;;;;;;4899419;29;20491;-80
2022/01/09 13:11:27;;;;;;;58.57;30.00;;;8.30;50.80;;;;;;4898504;29;20476;-83
2022/01/09 13:13:55;;;;;;;92.70;40.30;;;8.20;50.40;;;;;;4915600;29;20061;-80
2022/01/09 13:16:27;;;;;;;72.82;36.28;;;8.50;50.40;;;;;;4899202;29;20559;-80
2022/01/09 13:18:57;;;;;;;82.82;37.65;;;8.40;49.90;;;;;;4916685;29;20052;-80
2022/01/09 13:21:37;;;;;;;62.13;31.10;;;8.10;50.80;;;;;;4899787;29;20031;-87
2022/01/09 13:24:06;;;;;;;92.47;41.40;;;7.50;51.70;;;;;;4899763;29;20087;-81
2022/01/09 13:26:42;;;;;;;129.05;50.20;;;7.70;52.50;;;;;;4898036;29;20043;-83
2022/01/09 13:29:13;;;;;;;83.90;41.45;;;8.10;51.40;;;;;;4915145;29;20079;-81
2022/01/09 13:32:07;;;;;;;97.45;46.03;;;8.50;51.00;;;;;;4915953;29;20051;-81
2022/01/09 13:34:43;;;;;;;96.18;42.60;;;8.70;50.30;;;;;;4903267;29;20028;-88
2022/01/09 13:37:11;;;;;;;95.43;45.58;;;8.60;50.40;;;;;;4899290;29;20040;-78
2022/01/09 13:39:45;;;;;;;94.82;44.85;;;8.90;50.50;;;;;;4917237;29;20036;-88
2022/01/09 13:42:28;;;;;;;99.57;44.22;;;9.00;50.00;;;;;;4898564;29;20048;-78
2022/01/09 13:45:02;;;;;;;82.53;39.92;;;9.30;49.50;;;;;;4894281;29;20048;-89
2022/01/09 13:47:28;;;;;;;90.20;40.42;;;9.40;49.20;;;;;;4893512;29;20067;-82
2022/01/09 13:49:54;;;;;;;93.20;45.13;;;9.30;49.30;;;;;;4893389;29;20665;-82
2022/01/09 13:52:22;;;;;;;80.20;41.10;;;9.30;49.70;;;;;;4894894;29;20481;-80
2022/01/09 13:55:03;;;;;;;129.93;67.18;;;9.50;49.20;;;;;;4898502;29;20040;-87
2022/01/09 13:57:29;;;;;;;84.47;48.17;;;9.60;49.10;;;;;;4890276;29;20479;-82
2022/01/09 14:00:02;;;;;;;66.78;36.45;;;9.70;48.50;;;;;;4876930;29;20060;-87
2022/01/09 14:02:39;;;;;;;78.03;40.75;;;9.80;48.40;;;;;;4888566;29;20141;-78
2022/01/09 14:05:18;;;;;;;79.88;39.75;;;9.80;48.10;;;;;;4895280;29;20087;-88
2022/01/09 14:07:52;;;;;;;68.93;37.25;;;9.70;48.00;;;;;;4895603;29;20032;-80
2022/01/09 14:10:19;;;;;;;69.35;36.40;;;9.80;48.10;;;;;;4898368;29;20035;-80
2022/01/09 14:12:46;;;;;;;69.10;35.65;;;9.60;48.20;;;;;;4898101;29;20473;-81
2022/01/09 14:15:16;;;;;;;57.50;31.27;;;9.40;48.20;;;;;;4905611;29;20036;-82
2022/01/09 14:17:50;;;;;;;54.53;32.28;;;9.60;49.30;;;;;;4907133;29;20036;-91
2022/01/09 14:20:21;;;;;;;62.03;34.55;;;9.50;48.60;;;;;;4919415;29;20036;-84
2022/01/09 14:23:06;;;;;;;63.05;33.05;;;9.60;48.70;;;;;;4912849;29;20035;-84
2022/01/09 14:25:38;;;;;;;60.88;32.55;;;9.60;48.60;;;;;;4901732;29;20037;-83
2022/01/09 14:28:09;;;;;;;59.53;32.42;;;9.40;48.90;;;;;;4904922;29;20112;-90
2022/01/09 14:30:44;;;;;;;59.95;31.95;;;9.40;48.90;;;;;;4901497;29;20040;-88
2022/01/09 14:33:14;;;;;;;62.47;33.67;;;9.40;49.00;;;;;;4900168;29;20034;-88
2022/01/09 14:35:47;;;;;;;61.80;36.13;;;9.10;49.30;;;;;;4902167;29;20031;-86
2022/01/09 14:38:35;;;;;;;55.95;30.17;;;8.70;50.10;;;;;;4900415;29;20037;-90
2022/01/09 14:41:05;;;;;;;57.30;30.38;;;8.70;50.30;;;;;;4882199;29;20032;-89
2022/01/09 14:43:34;;;;;;;145.02;63.88;;;8.80;50.10;;;;;;4884377;29;20571;-90
2022/01/09 14:46:00;;;;;;;167.23;56.47;;;8.80;49.90;;;;;;4884953;29;20047;-83
2022/01/09 14:48:33;;;;;;;65.85;33.47;;;8.60;50.70;;;;;;4901839;29;20032;-89
2022/01/09 14:51:00;;;;;;;55.20;30.23;;;8.80;50.00;;;;;;4883999;29;20037;-90
2022/01/09 14:53:27;;;;;;;61.58;31.73;;;8.70;49.90;;;;;;4883356;29;20491;-85
2022/01/09 14:55:59;;;;;;;59.15;32.13;;;8.50;50.10;;;;;;4893490;29;20088;-79
2022/01/09 14:58:25;;;;;;;61.70;34.13;;;8.60;50.60;;;;;;4904564;29;20036;-86
2022/01/09 15:00:51;;;;;;;63.95;33.50;;;8.50;50.90;;;;;;4891051;29;20084;-89
2022/01/09 15:03:19;;;;;;;63.28;32.95;;;8.60;50.60;;;;;;4914479;29;20032;-90
2022/01/09 15:05:46;;;;;;;58.65;30.88;;;8.90;50.30;;;;;;4903363;29;20036;-85
2022/01/09 15:08:15;;;;;;;54.30;29.98;;;9.10;49.70;;;;;;4903968;29;20106;-85
2022/01/09 15:10:42;;;;;;;58.03;30.42;;;9.30;49.50;;;;;;4915088;29;20032;-88
2022/01/09 15:13:10;;;;;;;55.15;30.08;;;9.60;48.70;;;;;;4883579;29;20369;-86
2022/01/09 15:15:39;;;;;;;56.00;29.85;;;9.70;48.40;;;;;;4883327;29;20035;-82
2022/01/09 15:18:05;;;;;;;104.38;44.53;;;9.90;48.30;;;;;;4883731;29;20025;-90
2022/01/09 15:20:31;;;;;;;148.32;60.58;;;9.80;48.60;;;;;;4882818;29;20551;-81
2022/01/09 15:22:58;;;;;;;111.30;45.88;;;9.90;48.40;;;;;;4883447;29;20043;-82
2022/01/09 15:25:25;;;;;;;90.50;39.67;;;9.70;48.60;;;;;;4890960;29;20067;-90
2022/01/09 15:27:54;;;;;;;106.07;44.45;;;9.60;48.70;;;;;;4934597;29;20095;-92
2022/01/09 15:30:20;;;;;;;106.22;45.08;;;9.50;48.80;;;;;;4918813;29;20068;-91
2022/01/09 15:32:48;;;;;;;109.63;47.10;;;9.60;48.60;;;;;;4902855;29;20028;-89
2022/01/09 15:35:14;;;;;;;94.55;42.65;;;9.70;48.90;;;;;;4902950;29;20063;-85
2022/01/09 15:37:41;;;;;;;100.45;45.05;;;9.30;49.20;;;;;;4903015;29;20056;-80
2022/01/09 15:40:10;;;;;;;88.68;43.65;;;9.10;49.60;;;;;;4910726;29;20368;-92
2022/01/09 15:42:36;;;;;;;89.13;43.67;;;9.00;49.70;;;;;;4918783;29;20024;-86
2022/01/09 15:45:03;;;;;;;101.88;49.35;;;8.90;49.80;;;;;;4915261;29;20059;-80
2022/01/09 15:47:29;;;;;;;90.15;43.08;;;8.60;49.90;;;;;;4899905;29;20032;-89
2022/01/09 15:49:55;;;;;;;83.60;41.65;;;8.80;50.10;;;;;;4900556;29;20422;-83
2022/01/09 15:52:22;;;;;;;95.40;45.70;;;8.80;50.20;;;;;;4901360;29;20395;-82
2022/01/09 15:54:48;;;;;;;97.57;46.35;;;9.10;50.50;;;;;;4903910;29;20467;-78
2022/01/09 15:57:14;;;;;;;93.88;46.08;;;9.30;50.10;;;;;;4903831;29;20024;-83
2022/01/09 15:59:40;;;;;;;110.25;46.13;;;9.50;49.60;;;;;;4919976;29;20035;-88
2022/01/09 16:02:06;;;;;;;109.65;47.83;;;9.70;49.50;;;;;;4924340;29;20024;-85
2022/01/09 16:04:31;;;;;;;104.93;47.20;;;9.80;49.40;;;;;;4915358;29;20032;-79
2022/01/09 16:06:57;;;;;;;98.93;45.35;;;9.80;49.30;;;;;;4931794;29;20028;-84
2022/01/09 16:09:23;;;;;;;88.25;43.40;;;9.90;49.10;;;;;;4903048;29;20044;-89
2022/01/09 16:11:50;;;;;;;132.32;52.05;;;9.90;48.90;;;;;;4917349;29;20067;-88
2022/01/09 16:14:16;;;;;;;137.70;55.80;;;9.80;49.40;;;;;;4895907;29;20035;-89
2022/01/09 16:16:42;;;;;;;118.78;51.00;;;9.90;49.30;;;;;;4914769;29;20035;-86
2022/01/09 16:19:08;;;;;;;109.63;50.47;;;9.90;49.20;;;;;;4918751;29;20028;-88
2022/01/09 16:21:33;;;;;;;118.03;53.53;;;9.80;49.20;;;;;;4901479;29;20039;-88
2022/01/09 16:23:59;;;;;;;106.18;49.45;;;9.90;49.00;;;;;;4900786;29;20036;-90
2022/01/09 16:26:25;;;;;;;96.85;49.03;;;9.90;49.10;;;;;;4918150;29;20500;-87
2022/01/09 16:28:52;;;;;;;105.68;55.83;;;9.80;48.90;;;;;;4901898;29;20028;-89
2022/01/09 16:31:19;;;;;;;125.28;64.53;;;9.80;49.10;;;;;;4900316;29;20034;-90
2022/01/09 16:33:45;;;;;;;127.38;62.00;;;9.80;48.90;;;;;;4902266;29;20036;-87
2022/01/09 16:36:13;;;;;;;120.53;60.90;;;9.70;49.20;;;;;;4901708;29;20143;-91
2022/01/09 16:38:40;;;;;;;104.50;51.67;;;9.70;49.10;;;;;;4901453;29;20027;-90
2022/01/09 16:41:08;;;;;;;102.43;51.28;;;9.40;49.70;;;;;;4905967;29;20411;-90
2022/01/09 16:43:36;;;;;;;110.20;57.70;;;9.10;50.20;;;;;;4920199;29;20071;-89
2022/01/09 16:46:03;;;;;;;109.25;54.28;;;8.90;50.60;;;;;;4937444;29;20495;-85
2022/01/09 16:48:36;;;;;;;97.28;47.33;;;8.70;51.10;;;;;;4919818;29;20028;-91
2022/01/09 16:51:04;;;;;;;87.88;43.97;;;8.60;51.30;;;;;;4924943;29;20032;-92
2022/01/09 16:53:42;;;;;;;102.55;50.45;;;8.40;52.10;;;;;;4902677;29;20084;-91
2022/01/09 16:56:09;;;;;;;92.55;49.15;;;8.50;52.40;;;;;;4915579;29;20027;-92
2022/01/09 16:58:38;;;;;;;92.22;47.47;;;8.70;51.60;;;;;;4905862;29;20032;-89
2022/01/09 17:01:03;;;;;;;113.45;54.28;;;8.80;51.10;;;;;;4902108;29;20079;-92
2022/01/09 17:03:33;;;;;;;95.70;48.20;;;8.80;51.00;;;;;;4927159;29;20028;-91
2022/01/09 17:06:03;;;;;;;97.45;50.60;;;9.00;50.50;;;;;;4918654;29;20050;-91
2022/01/09 17:08:33;;;;;;;90.50;45.65;;;9.10;50.30;;;;;;4917011;29;20063;-90
2022/01/09 17:10:59;;;;;;;90.32;45.28;;;9.20;50.70;;;;;;4922423;29;20036;-91
2022/01/09 17:13:25;;;;;;;91.07;45.78;;;9.20;50.30;;;;;;4915751;29;20044;-91
2022/01/09 17:15:50;;;;;;;85.68;44.33;;;9.00;50.50;;;;;;4917501;29;20032;-85
2022/01/09 17:18:16;;;;;;;81.53;40.60;;;9.00;50.20;;;;;;4914793;29;20518;-87
2022/01/09 17:20:41;;;;;;;79.18;38.88;;;9.00;50.30;;;;;;4916061;29;20487;-92
2022/01/09 17:23:08;;;;;;;69.80;36.20;;;8.70;50.10;;;;;;4916041;29;20416;-79
2022/01/09 17:25:34;;;;;;;77.63;41.15;;;8.50;50.50;;;;;;4916695;29;20063;-92
2022/01/09 17:28:00;;;;;;;71.97;36.15;;;8.50;50.80;;;;;;4916578;29;20059;-83
2022/01/09 17:30:26;;;;;;;65.28;34.72;;;8.70;50.40;;;;;;4917990;29;20032;-92
2022/01/09 17:32:51;;;;;;;67.32;33.17;;;8.50;50.50;;;;;;4916481;29;20088;-87
2022/01/09 17:35:17;;;;;;;59.58;29.40;;;8.30;50.40;;;;;;4916842;29;20036;-88
2022/01/09 17:37:43;;;;;;;68.00;34.40;;;7.90;51.00;;;;;;4916049;29;20551;-89
2022/01/09 17:40:09;;;;;;;71.90;37.33;;;8.00;51.40;;;;;;4916844;29;20063;-86
2022/01/09 17:42:35;;;;;;;71.93;36.22;;;7.80;51.00;;;;;;4917347;29;20028;-87
2022/01/09 17:45:01;;;;;;;61.63;32.28;;;8.00;51.10;;;;;;4898865;29;20096;-91
2022/01/09 17:47:27;;;;;;;66.78;34.33;;;8.40;50.70;;;;;;4918669;29;20086;-91
2022/01/09 17:49:52;;;;;;;79.85;38.00;;;8.70;50.20;;;;;;4918405;29;20039;-88
2022/01/09 17:52:18;;;;;;;87.03;38.67;;;8.80;49.70;;;;;;4906360;29;20059;-76
2022/01/09 17:54:45;;;;;;;69.35;35.78;;;8.90;49.40;;;;;;4902081;29;20035;-91
2022/01/09 17:57:11;;;;;;;82.63;40.65;;;9.10;49.40;;;;;;4901328;29;20024;-86